sensor_id;sensor_type;location;lat;lon;timestamp;pressure;altitude;pressure_sealevel;temperature;humidity
15558;BME280;7880;50.110;9.372;2023-09-19T00:02:39;16.54840927517507;;;16.5;100.0
15558;BME280;7880;50.110;9.372;2023-09-19T00:07:43;16.61900640130043;;;16.562;100.0
15558;BME280;7880;50.110;9.372;2023-09-19T00:12:47;16.528238678188064;;;16.5;100.0
15558;BME280;7880;50.110;9.372;2023-09-19T00:17:56;16.568579876818696;;;16.5;100.0
15558;BME280;7880;50.110;9.372;2023-09-19T00:22:59;16.659347641840576;;;16.562;100.0
15558;BME280;7880;50.110;9.372;2023-09-19T00:27:59;16.624049055349314;;;16.5;100.0
15558;BME280;7880;50.110;9.372;2023-09-19T00:33:06;16.55345192514942;;;16.5;100.0
15558;BME280;7880;50.110;9.372;2023-09-19T00:38:08;16.45259898095974;;;16.375;100.0
15558;BME280;7880;50.110;9.372;2023-09-19T00:43:19;16.412257835880155;;;16.375;100.0
15558;BME280;7880;50.110;9.372;2023-09-19T00:48:19;16.366874069930056;;;16.312;100.0
15558;BME280;7880;50.110;9.372;2023-09-19T00:53:24;16.336618239060044;;;16.25;100.0
15558;BME280;7880;50.110;9.372;2023-09-19T00:58:34;16.341660876810785;;;16.25;100.0
15558;BME280;7880;50.110;9.372;2023-09-19T01:03:44;16.397129911277442;;;16.312;100.0
15558;BME280;7880;50.110;9.372;2023-09-19T01:08:45;16.437471049372107;;;16.375;100.0
15558;BME280;7880;50.110;9.372;2023-09-19T01:13:55;16.41730047799647;;;16.312;100.0
15558;BME280;7880;50.110;9.372;2023-09-19T01:19:07;16.497982791438698;;;16.437;100.0
15558;BME280;7880;50.110;9.372;2023-09-19T01:24:16;16.306362418667412;;;16.25;100.0
15558;BME280;7880;50.110;9.372;2023-09-19T01:29:16;16.311405054671923;;;16.25;100.0
15558;BME280;7880;50.110;9.372;2023-09-19T01:34:08;16.37695934921503;;;16.25;100.0
15558;BME280;7880;50.110;9.372;2023-09-19T01:39:12;16.37695934921503;;;16.312;100.0
15558;BME280;7880;50.110;9.372;2023-09-19T01:44:22;16.32653296443168;;;16.312;100.0
15558;BME280;7880;50.110;9.372;2023-09-19T01:49:30;16.311405054671923;;;16.25;100.0
15558;BME280;7880;50.110;9.372;2023-09-19T01:54:33;16.472769560484448;;;16.375;100.0
15558;BME280;7880;50.110;9.372;2023-09-19T01:59:36;16.276106608752162;;;16.25;100.0
15558;BME280;7880;50.110;9.372;2023-09-19T02:04:36;16.245850809314287;;;16.25;100.0
15558;BME280;7880;50.110;9.372;2023-09-19T02:09:43;16.11474246615544;;;16.062;100.0
15558;BME280;7880;50.110;9.372;2023-09-19T02:14:48;16.170211356558138;;;16.125;100.0
15558;BME280;7880;50.110;9.372;2023-09-19T02:19:55;16.109699841501424;;;16.062;100.0
15558;BME280;7880;50.110;9.372;2023-09-19T02:25:01;16.034060506615788;;;16.0;100.0
15558;BME280;7880;50.110;9.372;2023-09-19T02:30:05;16.09961459306651;;;16.062;100.0
15558;BME280;7880;50.110;9.372;2023-09-19T02:35:11;15.978591702651466;;;15.875;100.0
15558;BME280;7880;50.110;9.372;2023-09-19T02:40:19;15.95842123721377;;;15.875;100.0
15558;BME280;7880;50.110;9.372;2023-09-19T02:45:19;15.983634319738485;;;15.937;100.0
15558;BME280;7880;50.110;9.372;2023-09-19T02:50:28;15.998762172745774;;;15.937;100.0
15558;BME280;7880;50.110;9.372;2023-09-19T02:55:32;15.907995093992213;;;15.812;100.0
15558;BME280;7880;50.110;9.372;2023-09-19T03:00:37;15.827313325373689;;;15.75;100.0
15558;BME280;7880;50.110;9.372;2023-09-19T03:05:35;15.761759443231858;;;15.75;100.0
15558;BME280;7880;50.110;9.372;2023-09-19T03:10:46;15.76680204780423;;;15.75;100.0
15558;BME280;7880;50.110;9.372;2023-09-19T03:15:46;15.776887257822091;;;15.687;100.0
15558;BME280;7880;50.110;9.372;2023-09-19T03:20:53;15.726461219374324;;;15.625;100.0
15558;BME280;7880;50.110;9.372;2023-09-19T03:26:06;15.630651826504618;;;15.562;100.0
15558;BME280;7880;50.110;9.372;2023-09-19T03:31:03;15.60543884584331;;;15.562;100.0
15558;BME280;7880;50.110;9.372;2023-09-19T03:36:07;15.610481441393494;;;15.562;100.0
15558;BME280;7880;50.110;9.372;2023-09-19T03:41:14;15.580225872457959;;;15.5;100.0
15558;BME280;7880;50.110;9.372;2023-09-19T03:46:23;15.519714766019025;;;15.437;100.0
15558;BME280;7880;50.110;9.372;2023-09-19T03:51:36;15.464246288599679;;;15.437;100.0
15558;BME280;7880;50.110;9.372;2023-09-19T03:56:35;15.36843718327582;;;15.375;100.0
15558;BME280;7880;50.110;9.372;2023-09-19T04:01:41;15.30792622352019;;;15.25;100.0
15558;BME280;7880;50.110;9.372;2023-09-19T04:06:49;15.217159862467089;;;15.187;100.0
15558;BME280;7880;50.110;9.372;2023-09-19T04:11:02;15.171776717301691;;;15.125;100.0
15558;BME280;7880;50.110;9.372;2023-09-19T04:16:10;15.18186185863451;;;15.125;100.0
15558;BME280;7880;50.110;9.372;2023-09-19T04:21:12;15.040669985912974;;;15.0;100.0
15558;BME280;7880;50.110;9.372;2023-09-19T04:26:19;15.086053062975406;;;15.0;100.0
15558;BME280;7880;50.110;9.372;2023-09-19T04:31:22;14.995286932424643;;;14.937;100.0
15558;BME280;7880;50.110;9.372;2023-09-19T04:36:25;15.010414614301407;;;14.937;100.0
15558;BME280;7880;50.110;9.372;2023-09-19T04:41:30;15.040669985912974;;;15.0;100.0
15558;BME280;7880;50.110;9.372;2023-09-19T04:46:35;14.909563451266148;;;14.937;100.0
15558;BME280;7880;50.110;9.372;2023-09-19T04:51:41;14.899478341365466;;;14.812;100.0
15558;BME280;7880;50.110;9.372;2023-09-19T04:56:56;14.859137913404265;;;14.812;100.0
15558;BME280;7880;50.110;9.372;2023-09-19T05:02:05;14.803669855371117;;;14.75;100.0
15558;BME280;7880;50.110;9.372;2023-09-19T05:07:11;14.738116741279374;;;14.687;100.0
15558;BME280;7880;50.110;9.372;2023-09-19T05:12:11;14.642308432236314;;;14.625;100.0
15558;BME280;7880;50.110;9.372;2023-09-19T05:17:28;14.6776062180812;;;14.625;100.0
15558;BME280;7880;50.110;9.372;2023-09-19T05:22:21;14.692733844951727;;;14.625;100.0
15558;BME280;7880;50.110;9.372;2023-09-19T05:27:29;14.788542209292064;;;14.75;100.0
15558;BME280;7880;50.110;9.372;2023-09-19T05:32:28;14.813754954212346;;;14.75;100.0
15558;BME280;7880;50.110;9.372;2023-09-19T05:37:32;14.813754954212346;;;14.75;100.0
15558;BME280;7880;50.110;9.372;2023-09-19T05:42:37;14.768372018594528;;;14.687;100.0
15558;BME280;7880;50.110;9.372;2023-09-19T05:47:41;14.753244378627278;;;14.687;100.0
15558;BME280;7880;50.110;9.372;2023-09-19T05:52:51;14.778457113361219;;;14.75;100.0
15558;BME280;7880;50.110;9.372;2023-09-19T05:57:52;14.768372018594528;;;14.75;100.0
15558;BME280;7880;50.110;9.372;2023-09-19T06:02:59;14.859137913404265;;;14.75;100.0
15558;BME280;7880;50.110;9.372;2023-09-19T06:08:08;14.864180465880782;;;14.812;100.0
15558;BME280;7880;50.110;9.372;2023-09-19T06:13:10;14.849052809324348;;;14.812;100.0
15558;BME280;7880;50.110;9.372;2023-09-19T06:18:12;14.859137913404265;;;14.812;100.0
15558;BME280;7880;50.110;9.372;2023-09-19T06:23:18;14.924691118299961;;;14.812;100.0
15558;BME280;7880;50.110;9.372;2023-09-19T06:28:28;14.793584757694044;;;14.687;100.0
15558;BME280;7880;50.110;9.372;2023-09-19T06:33:44;14.884350678697228;;;14.812;100.0
15558;BME280;7880;50.110;9.372;2023-09-19T06:38:30;14.788542209292064;;;14.687;100.0
15558;BME280;7880;50.110;9.372;2023-09-19T06:43:37;14.899478341365466;;;14.75;100.0
15558;BME280;7880;50.110;9.372;2023-09-19T06:48:44;14.6776062180812;;;14.687;100.0
15558;BME280;7880;50.110;9.372;2023-09-19T06:53:49;14.71794656222337;;;14.687;100.0
15558;BME280;7880;50.110;9.372;2023-09-19T06:58:51;14.808712404646212;;;14.687;100.0
15558;BME280;7880;50.110;9.372;2023-09-19T07:03:57;14.813754954212346;;;14.75;100.0
15558;BME280;7880;50.110;9.372;2023-09-19T07:09:01;14.859137913404265;;;14.75;100.0
15558;BME280;7880;50.110;9.372;2023-09-19T07:14:13;14.844010257720948;;;14.812;100.0
15558;BME280;7880;50.110;9.372;2023-09-19T07:19:10;14.894435786851682;;;14.75;100.0
15558;BME280;7880;50.110;9.372;2023-09-19T07:24:14;14.899478341365466;;;14.812;100.0
15558;BME280;7880;50.110;9.372;2023-09-19T07:29:24;14.904520896170288;;;14.875;100.0
15558;BME280;7880;50.110;9.372;2023-09-19T07:34:26;14.980159253167221;;;14.875;100.0
15558;BME280;7880;50.110;9.372;2023-09-19T07:39:28;14.949903902510414;;;14.875;100.0
15558;BME280;7880;50.110;9.372;2023-09-19T07:44:35;14.990244372381131;;;14.937;100.0
15558;BME280;7880;50.110;9.372;2023-09-19T07:49:40;15.096138194412925;;;14.937;100.0
15558;BME280;7880;50.110;9.372;2023-09-19T07:54:44;15.15160643812851;;;15.062;100.0
15558;BME280;7880;50.110;9.372;2023-09-19T07:59:46;15.18186185863451;;;15.062;100.0
15558;BME280;7880;50.110;9.372;2023-09-19T08:04:53;15.166734147071839;;;15.062;100.0
15558;BME280;7880;50.110;9.372;2023-09-19T08:10:02;15.075967932702042;;;15.0;100.0
15558;BME280;7880;50.110;9.372;2023-09-19T08:15:06;15.126393595710397;;;15.062;100.0
15558;BME280;7880;50.110;9.372;2023-09-19T08:20:09;15.257500455738045;;;15.125;100.0
15558;BME280;7880;50.110;9.372;2023-09-19T08:25:18;15.23228758276091;;;15.187;100.0
15558;BME280;7880;50.110;9.372;2023-09-19T08:30:21;15.302883645432303;;;15.187;100.0
15558;BME280;7880;50.110;9.372;2023-09-19T08:35:24;15.433990770304808;;;15.312;100.0
15558;BME280;7880;50.110;9.372;2023-09-19T08:40:29;15.474331463692943;;;15.312;100.0
15558;BME280;7880;50.110;9.372;2023-09-19T08:45:33;15.41886301508639;;;15.312;100.0
15558;BME280;7880;50.110;9.372;2023-09-19T08:50:43;15.423905599868158;;;15.312;100.0
15558;BME280;7880;50.110;9.372;2023-09-19T08:55:43;15.489459228515624;;;15.375;100.0
15558;BME280;7880;50.110;9.372;2023-09-19T09:00:48;15.88278203329537;;;15.687;100.0
15558;BME280;7880;50.110;9.372;2023-09-19T09:05:51;15.817228109535062;;;15.687;100.0
15558;BME280;7880;50.110;9.372;2023-09-19T09:10:59;15.998762172745774;;;15.812;100.0
15558;BME280;7880;50.110;9.372;2023-09-19T09:15:18;15.998762172745774;;;15.875;100.0
15558;BME280;7880;50.110;9.372;2023-09-19T09:21:01;15.847483760543401;;;15.75;100.0
15558;BME280;7880;50.110;9.372;2023-09-19T09:26:11;16.160126101138303;;;15.937;100.0
15558;BME280;7880;50.110;9.372;2023-09-19T09:31:22;15.691163009777664;;;15.75;100.0
15558;BME280;7880;50.110;9.372;2023-09-19T09:36:34;15.746631631260971;;;15.687;100.0
15558;BME280;7880;50.110;9.372;2023-09-19T09:41:36;15.918080320308217;;;15.812;100.0
15558;BME280;7880;50.110;9.372;2023-09-19T09:47:41;16.200467129802565;;;16.0;100.0
15558;BME280;7880;50.110;9.372;2023-09-19T09:52:25;16.331575601600342;;;16.187;100.0
15558;BME280;7880;50.110;9.372;2023-09-19T09:57:26;16.492940144665774;;;16.25;100.0
15558;BME280;7880;50.110;9.372;2023-09-19T10:02:30;16.42738576310221;;;16.312;100.0
15558;BME280;7880;50.110;9.372;2023-09-19T10:07:33;16.27106397478492;;;16.187;100.0
15558;BME280;7880;50.110;9.372;2023-09-19T10:12:43;16.341660876810785;;;16.187;100.0
15558;BME280;7880;50.110;9.372;2023-09-19T10:17:44;16.42738576310221;;;16.312;100.0
15558;BME280;7880;50.110;9.372;2023-09-19T10:22:57;16.55345192514942;;;16.437;100.0
15558;BME280;7880;50.110;9.372;2023-09-19T10:27:54;16.528238678188064;;;16.5;100.0
15558;BME280;7880;50.110;9.372;2023-09-19T10:33:01;16.42738576310221;;;16.375;100.0
15558;BME280;7880;50.110;9.372;2023-09-19T10:38:01;16.765243486879626;;;16.562;100.0
15558;BME280;7880;50.110;9.372;2023-09-19T10:43:16;17.0072916146426;;;16.812;98.76475624110857
15558;BME280;7880;50.110;9.372;2023-09-19T10:48:10;16.90643814658397;;;16.812;98.591755859592
15558;BME280;7880;50.110;9.372;2023-09-19T10:53:16;16.850968788773752;;;16.75;100.0
15558;BME280;7880;50.110;9.372;2023-09-19T10:58:27;16.67951826909557;;;16.625;100.0
15558;BME280;7880;50.110;9.372;2023-09-19T11:03:30;16.674475611845264;;;16.625;100.0
15558;BME280;7880;50.110;9.372;2023-09-19T11:08:52;16.795499466179173;;;16.687;100.0
15558;BME280;7880;50.110;9.372;2023-09-19T11:13:41;16.8156701248663;;;16.687;100.0
15558;BME280;7880;50.110;9.372;2023-09-19T11:18:57;16.82071279026568;;;16.75;100.0
15558;BME280;7880;50.110;9.372;2023-09-19T11:24:28;16.916523488151142;;;16.812;100.0
15558;BME280;7880;50.110;9.372;2023-09-19T11:29:27;17.324980799946935;;;17.125;100.0
15558;BME280;7880;50.110;9.372;2023-09-19T11:34:50;17.415749350772238;;;17.25;94.70715520499026
15558;BME280;7880;50.110;9.372;2023-09-19T11:39:31;17.70318371714675;;;17.5;93.7555488109055
15558;BME280;7880;50.110;9.372;2023-09-19T11:44:38;17.567030478361993;;;17.5;89.54696398065526
15558;BME280;7880;50.110;9.372;2023-09-19T11:49:40;17.188828150514745;;;17.25;86.96482132314591
15558;BME280;7880;50.110;9.372;2023-09-19T11:54:42;17.239255032973595;;;17.187;89.21577194505349
15558;BME280;7880;50.110;9.372;2023-09-19T11:59:48;17.17370009145234;;;17.187;89.04321357128003
15558;BME280;7880;50.110;9.372;2023-09-19T12:04:53;17.65275656693266;;;17.437;91.31327533060076
15558;BME280;7880;50.110;9.372;2023-09-19T12:10:03;17.57207318712608;;;17.5;90.34580422353426
15558;BME280;7880;50.110;9.372;2023-09-19T12:15:00;17.511560701165582;;;17.437;91.35457667792707
15558;BME280;7880;50.110;9.372;2023-09-19T12:20:11;17.672927423525834;;;17.562;92.32118460128513
15558;BME280;7880;50.110;9.372;2023-09-19T12:25:12;17.19891352467821;;;17.25;89.92361137155403
15558;BME280;7880;50.110;9.372;2023-09-19T12:30:17;17.269511176418746;;;17.25;88.31494643819453
15558;BME280;7880;50.110;9.372;2023-09-19T12:35:27;17.4510482571146;;;17.375;88.59136312731566
15558;BME280;7880;50.110;9.372;2023-09-19T12:40:28;17.440962853847303;;;17.375;87.71191115780249
15558;BME280;7880;50.110;9.372;2023-09-19T12:45:30;17.446005555335432;;;17.375;86.78070814084738
15558;BME280;7880;50.110;9.372;2023-09-19T12:50:33;17.54181693890714;;;17.437;87.29205552215592
15558;BME280;7880;50.110;9.372;2023-09-19T12:55:38;17.65275656693266;;;17.562;88.16208931962153
15558;BME280;7880;50.110;9.372;2023-09-19T13:00:44;17.642671140382298;;;17.625;84.54304378921289
15558;BME280;7880;50.110;9.372;2023-09-19T13:05:49;18.025918167695636;;;17.937;84.637248575662
15558;BME280;7880;50.110;9.372;2023-09-19T13:11:06;18.273012537136673;;;18.125;85.02125227580454
15558;BME280;7880;50.110;9.372;2023-09-19T13:15:58;18.273012537136673;;;18.25;84.94651890606987
15558;BME280;7880;50.110;9.372;2023-09-19T13:21:10;18.20241407456342;;;18.25;84.1489357289953
15558;BME280;7880;50.110;9.372;2023-09-19T13:26:06;17.88472169889719;;;17.937;85.05954572908972
15558;BME280;7880;50.110;9.372;2023-09-19T13:31:11;18.036003638483816;;;17.937;85.18252879534998
15558;BME280;7880;50.110;9.372;2023-09-19T13:36:16;18.212499565724283;;;18.187;85.68185371459576
15558;BME280;7880;50.110;9.372;2023-09-19T13:41:24;18.308311789814617;;;18.187;82.89965509780286
15558;BME280;7880;50.110;9.372;2023-09-19T13:46:27;18.318397293199087;;;18.312;82.8900054647215
15558;BME280;7880;50.110;9.372;2023-09-19T13:51:31;18.474722744524477;;;18.375;81.24366796138843
15558;BME280;7880;50.110;9.372;2023-09-19T13:56:34;18.474722744524477;;;18.437;81.11534834965396
15558;BME280;7880;50.110;9.372;2023-09-19T14:01:36;18.661305100942265;;;18.562;83.72161829797979
15558;BME280;7880;50.110;9.372;2023-09-19T14:06:43;18.32848279774771;;;18.312;82.46364175898985
15558;BME280;7880;50.110;9.372;2023-09-19T14:11:53;18.504979315795936;;;18.437;82.5350118270409
15558;BME280;7880;50.110;9.372;2023-09-19T14:16:52;18.42933790726238;;;18.437;81.42094500545606
15558;BME280;7880;50.110;9.372;2023-09-19T14:21:25;18.32848279774771;;;18.25;83.46793955518824
15558;BME280;7880;50.110;9.372;2023-09-19T14:26:31;18.16711486466811;;;18.125;83.20022564283244
15558;BME280;7880;50.110;9.372;2023-09-19T14:31:37;18.439423424616688;;;18.312;84.14186330975308
15558;BME280;7880;50.110;9.372;2023-09-19T14:36:39;18.62600570565555;;;18.5;86.31431099544776
15558;BME280;7880;50.110;9.372;2023-09-19T14:41:45;18.570535256160657;;;18.562;85.35762728514038
15558;BME280;7880;50.110;9.372;2023-09-19T14:46:48;18.37891033795313;;;18.375;85.6038732379699
15558;BME280;7880;50.110;9.372;2023-09-19T14:51:53;18.49489379087463;;;18.437;88.3866501958062
15558;BME280;7880;50.110;9.372;2023-09-19T14:57:04;18.469679983664538;;;18.375;88.39976238102795
15558;BME280;7880;50.110;9.372;2023-09-19T15:02:02;18.55540695786476;;;18.437;89.5726478743
15558;BME280;7880;50.110;9.372;2023-09-19T15:07:07;18.383953093574384;;;18.375;86.23963520458128
15558;BME280;7880;50.110;9.372;2023-09-19T15:12:14;18.620962936064462;;;18.5;87.92609935489871
15558;BME280;7880;50.110;9.372;2023-09-19T15:17:19;18.489851028850534;;;18.5;87.19609529306283
15558;BME280;7880;50.110;9.372;2023-09-19T15:22:23;18.59574909247458;;;18.562;88.74507503262834
15558;BME280;7880;50.110;9.372;2023-09-19T15:27:33;18.55540695786476;;;18.562;90.5379878015032
15558;BME280;7880;50.110;9.372;2023-09-19T15:32:32;18.358739318378504;;;18.437;87.83227896091252
15558;BME280;7880;50.110;9.372;2023-09-19T15:37:37;18.358739318378504;;;18.375;89.20831065954657
15558;BME280;7880;50.110;9.372;2023-09-19T15:42:44;18.338568303460487;;;18.312;88.15536562782347
15558;BME280;7880;50.110;9.372;2023-09-19T15:47:47;18.273012537136673;;;18.312;89.02770216359221
15558;BME280;7880;50.110;9.372;2023-09-19T15:52:53;18.318397293199087;;;18.25;90.69086231034191
15558;BME280;7880;50.110;9.372;2023-09-19T15:57:57;18.106601966597374;;;18.187;92.24716772833442
15558;BME280;7880;50.110;9.372;2023-09-19T16:03:02;18.15702937874594;;;18.125;92.95622753531073
15558;BME280;7880;50.110;9.372;2023-09-19T16:08:04;18.051131846848875;;;18.062;94.45425031959222
15558;BME280;7880;50.110;9.372;2023-09-19T16:13:08;18.03096090294421;;;18.0;96.62680046449469
15558;BME280;7880;50.110;9.372;2023-09-19T16:18:12;17.98053356355522;;;18.0;99.3884675500486
15558;BME280;7880;50.110;9.372;2023-09-19T16:23:16;17.84437989257858;;;17.875;98.6844184170699
15558;BME280;7880;50.110;9.372;2023-09-19T16:28:20;17.88472169889719;;;17.875;99.10425208366642
15558;BME280;7880;50.110;9.372;2023-09-19T16:33:24;17.71831186788622;;;17.75;100.0
15558;BME280;7880;50.110;9.372;2023-09-19T16:38:29;17.809080827329307;;;17.75;100.0
15558;BME280;7880;50.110;9.372;2023-09-19T16:43:33;17.758653615997172;;;17.75;100.0
15558;BME280;7880;50.110;9.372;2023-09-19T16:48:38;17.84437989257858;;;17.812;100.0
15558;BME280;7880;50.110;9.372;2023-09-19T16:53:44;17.62754300273955;;;17.625;100.0
15558;BME280;7880;50.110;9.372;2023-09-19T16:58:50;17.62754300273955;;;17.625;100.0
15558;BME280;7880;50.110;9.372;2023-09-19T17:03:58;17.54181693890714;;;17.562;100.0
15558;BME280;7880;50.110;9.372;2023-09-19T17:08:59;17.55190235381597;;;17.5;100.0
15558;BME280;7880;50.110;9.372;2023-09-19T17:14:02;17.511560701165582;;;17.5;100.0
15558;BME280;7880;50.110;9.372;2023-09-19T17:19:10;17.511560701165582;;;17.437;100.0
15558;BME280;7880;50.110;9.372;2023-09-19T17:24:13;17.430877451744163;;;17.437;100.0
15558;BME280;7880;50.110;9.372;2023-09-19T17:29:22;17.309852717310424;;;17.312;100.0
15558;BME280;7880;50.110;9.372;2023-09-19T17:34:20;17.17370009145234;;;17.187;100.0
15558;BME280;7880;50.110;9.372;2023-09-19T17:39:24;17.163614720199256;;;17.125;100.0
15558;BME280;7880;50.110;9.372;2023-09-19T17:44:34;17.178742777515435;;;17.187;100.0
15558;BME280;7880;50.110;9.372;2023-09-19T17:49:32;17.027462322224164;;;17.062;100.0
15558;BME280;7880;50.110;9.372;2023-09-19T17:54:36;16.987120911717646;;;17.0;100.0
15558;BME280;7880;50.110;9.372;2023-09-19T17:59:40;16.89635280618095;;;16.937;100.0
15558;BME280;7880;50.110;9.372;2023-09-19T18:04:47;16.75515816277475;;;16.812;100.0
15558;BME280;7880;50.110;9.372;2023-09-19T18:09:51;16.835840788210042;;;16.812;100.0
15558;BME280;7880;50.110;9.372;2023-09-19T18:14:56;16.74507283983403;;;16.75;100.0
15558;BME280;7880;50.110;9.372;2023-09-19T18:19:59;16.669432954886;;;16.625;100.0
15558;BME280;7880;50.110;9.372;2023-09-19T18:25:08;16.694646242592718;;;16.625;100.0
15558;BME280;7880;50.110;9.372;2023-09-19T18:30:11;16.578665179386736;;;16.562;100.0
15558;BME280;7880;50.110;9.372;2023-09-19T18:35:15;16.694646242592718;;;16.625;100.0
15558;BME280;7880;50.110;9.372;2023-09-19T18:40:18;16.55345192514942;;;16.562;100.0
15558;BME280;7880;50.110;9.372;2023-09-19T18:45:22;16.477812206093223;;;16.5;100.0
15558;BME280;7880;50.110;9.372;2023-09-19T18:50:27;16.144998220191336;;;16.25;100.0
15558;BME280;7880;50.110;9.372;2023-09-19T18:55:34;16.144998220191336;;;16.125;100.0
15558;BME280;7880;50.110;9.372;2023-09-19T19:00:35;16.225680282176473;;;16.125;100.0
15558;BME280;7880;50.110;9.372;2023-09-19T19:05:39;16.170211356558138;;;16.125;100.0
15558;BME280;7880;50.110;9.372;2023-09-19T19:10:43;16.175253984704614;;;16.125;100.0
15558;BME280;7880;50.110;9.372;2023-09-19T19:15:50;16.19038187089027;;;16.125;100.0
15558;BME280;7880;50.110;9.372;2023-09-19T19:20:57;16.321490327554056;;;16.25;100.0
15558;BME280;7880;50.110;9.372;2023-09-19T19:25:37;16.089529345795746;;;16.062;100.0
15558;BME280;7880;50.110;9.372;2023-09-19T19:30:43;16.03910312690423;;;16.0;100.0
15558;BME280;7880;50.110;9.372;2023-09-19T19:35:46;16.205509759695268;;;16.062;100.0
15558;BME280;7880;50.110;9.372;2023-09-19T19:40:57;16.255936074629425;;;16.25;100.0
15558;BME280;7880;50.110;9.372;2023-09-19T19:45:58;16.240808177093278;;;16.187;100.0
15558;BME280;7880;50.110;9.372;2023-09-19T19:51:05;16.220637651119613;;;16.187;100.0
15558;BME280;7880;50.110;9.372;2023-09-19T19:56:06;16.160126101138303;;;16.125;100.0
15558;BME280;7880;50.110;9.372;2023-09-19T20:01:11;16.175253984704614;;;16.062;100.0
15558;BME280;7880;50.110;9.372;2023-09-19T20:06:14;15.988676937116542;;;16.0;100.0
15558;BME280;7880;50.110;9.372;2023-09-19T20:11:19;16.034060506615788;;;16.0;100.0
15558;BME280;7880;50.110;9.372;2023-09-19T20:16:24;15.96850646935054;;;16.0;100.0
15558;BME280;7880;50.110;9.372;2023-09-19T20:21:29;16.119785091100493;;;16.062;100.0
15558;BME280;7880;50.110;9.372;2023-09-19T20:26:33;15.862611589976586;;;15.875;100.0
15558;BME280;7880;50.110;9.372;2023-09-19T20:31:37;15.756716838950524;;;15.687;100.0
15558;BME280;7880;50.110;9.372;2023-09-19T20:36:40;15.686120409570867;;;15.625;100.0
15558;BME280;7880;50.110;9.372;2023-09-19T20:41:46;15.706290812144289;;;15.625;100.0
15558;BME280;7880;50.110;9.372;2023-09-19T20:46:53;15.726461219374324;;;15.687;100.0
15558;BME280;7880;50.110;9.372;2023-09-19T20:51:54;15.867654200369724;;;15.75;100.0
15558;BME280;7880;50.110;9.372;2023-09-19T20:56:58;15.822270717308857;;;15.812;100.0
15558;BME280;7880;50.110;9.372;2023-09-19T21:02:02;15.96850646935054;;;15.937;100.0
15558;BME280;7880;50.110;9.372;2023-09-19T21:07:11;15.872696811053903;;;15.875;100.0
15558;BME280;7880;50.110;9.372;2023-09-19T21:12:10;15.827313325373689;;;15.812;100.0
15558;BME280;7880;50.110;9.372;2023-09-19T21:17:19;15.786972469004104;;;15.75;100.0
15558;BME280;7880;50.110;9.372;2023-09-19T21:22:20;15.388607512507587;;;15.5;100.0
15558;BME280;7880;50.110;9.372;2023-09-19T21:27:23;15.348266858700663;;;15.437;100.0
15558;BME280;7880;50.110;9.372;2023-09-19T21:32:27;15.423905599868158;;;15.375;100.0
15558;BME280;7880;50.110;9.372;2023-09-19T21:37:31;15.610481441393494;;;15.562;100.0
15558;BME280;7880;50.110;9.372;2023-09-19T21:42:37;15.686120409570867;;;15.625;100.0
15558;BME280;7880;50.110;9.372;2023-09-19T21:47:43;15.454161114670569;;;15.437;100.0
15558;BME280;7880;50.110;9.372;2023-09-19T21:52:45;15.282713335991138;;;15.25;100.0
15558;BME280;7880;50.110;9.372;2023-09-19T21:57:49;15.252457880560542;;;15.25;100.0
15558;BME280;7880;50.110;9.372;2023-09-19T22:02:55;15.222202435607324;;;15.187;100.0
15558;BME280;7880;50.110;9.372;2023-09-19T22:07:57;15.18186185863451;;;15.187;100.0
15558;BME280;7880;50.110;9.372;2023-09-19T22:13:00;15.262543031206587;;;15.187;100.0
15558;BME280;7880;50.110;9.372;2023-09-19T22:18:08;15.287755912914871;;;15.25;100.0
15558;BME280;7880;50.110;9.372;2023-09-19T22:23:13;15.312968801899114;;;15.312;100.0
15558;BME280;7880;50.110;9.372;2023-09-19T22:28:17;15.21211728961789;;;15.25;100.0
15558;BME280;7880;50.110;9.372;2023-09-19T22:33:22;15.227245009038597;;;15.25;100.0
15558;BME280;7880;50.110;9.372;2023-09-19T22:38:24;15.247415305674076;;;15.187;100.0
15558;BME280;7880;50.110;9.372;2023-09-19T22:43:33;15.217159862467089;;;15.187;100.0
15558;BME280;7880;50.110;9.372;2023-09-19T22:48:33;15.040669985912974;;;15.062;100.0
15558;BME280;7880;50.110;9.372;2023-09-19T22:53:44;14.889393232628937;;;14.937;100.0
15558;BME280;7880;50.110;9.372;2023-09-19T22:58:47;14.854095361218787;;;14.875;100.0
15558;BME280;7880;50.110;9.372;2023-09-19T23:03:53;14.576755439216504;;;14.625;100.0
15558;BME280;7880;50.110;9.372;2023-09-19T23:09:17;14.63222335318569;;;14.625;100.0